sensor_id;sensor_type;location;lat;lon;timestamp;P1;P4;P2;P0;N10;N4;N25;N1;N05;TS
79466;SPS30;68933;49.726;9.226;2023-07-31T00:00:26;2.5;;2.5;1.7;;;;;;
79466;SPS30;68933;49.726;9.226;2023-07-31T00:02:39;2.5;;2.5;1.7;;;;;;
79466;SPS30;68933;49.726;9.226;2023-07-31T00:04:52;2.5;;2.5;1.7;;;;;;
79466;SPS30;68933;49.726;9.226;2023-07-31T00:07:05;2.5;;2.5;1.7;;;;;;
79466;SPS30;68933;49.726;9.226;2023-07-31T00:09:18;2.5;;2.5;1.7;;;;;;
79466;SPS30;68933;49.726;9.226;2023-07-31T00:11:31;2.5;;2.5;1.7;;;;;;
79466;SPS30;68933;49.726;9.226;2023-07-31T00:13:44;2.5;;2.5;1.7;;;;;;
79466;SPS30;68933;49.726;9.226;2023-07-31T00:15:57;2.5;;2.5;1.7;;;;;;
79466;SPS30;68933;49.726;9.226;2023-07-31T00:18:10;2.5;;2.5;1.7;;;;;;
79466;SPS30;68933;49.726;9.226;2023-07-31T00:20:23;2.5;;2.5;1.7;;;;;;
79466;SPS30;68933;49.726;9.226;2023-07-31T00:22:36;2.5;;2.5;1.7;;;;;;
79466;SPS30;68933;49.726;9.226;2023-07-31T00:24:49;2.5;;2.5;1.7;;;;;;
79466;SPS30;68933;49.726;9.226;2023-07-31T00:27:02;2.5;;2.5;1.7;;;;;;
79466;SPS30;68933;49.726;9.226;2023-07-31T00:29:15;2.5;;2.5;1.7;;;;;;
79466;SPS30;68933;49.726;9.226;2023-07-31T00:31:28;2.5;;2.5;1.7;;;;;;
79466;SPS30;68933;49.726;9.226;2023-07-31T00:33:41;2.5;;2.5;1.7;;;;;;
79466;SPS30;68933;49.726;9.226;2023-07-31T00:35:54;2.5;;2.5;1.7;;;;;;
79466;SPS30;68933;49.726;9.226;2023-07-31T00:38:07;2.5;;2.5;1.7;;;;;;
79466;SPS30;68933;49.726;9.226;2023-07-31T00:40:20;2.5;;2.5;1.7;;;;;;
79466;SPS30;68933;49.726;9.226;2023-07-31T00:42:33;2.5;;2.5;1.7;;;;;;
79466;SPS30;68933;49.726;9.226;2023-07-31T00:44:46;2.5;;2.5;1.7;;;;;;
79466;SPS30;68933;49.726;9.226;2023-07-31T00:46:59;2.5;;2.5;1.7;;;;;;
79466;SPS30;68933;49.726;9.226;2023-07-31T00:49:12;2.5;;2.5;1.7;;;;;;
79466;SPS30;68933;49.726;9.226;2023-07-31T00:51:25;2.5;;2.5;1.7;;;;;;
79466;SPS30;68933;49.726;9.226;2023-07-31T00:53:38;2.5;;2.5;1.7;;;;;;
79466;SPS30;68933;49.726;9.226;2023-07-31T00:55:51;2.5;;2.5;1.7;;;;;;
79466;SPS30;68933;49.726;9.226;2023-07-31T00:58:04;2.5;;2.5;1.7;;;;;;
79466;SPS30;68933;49.726;9.226;2023-07-31T01:00:17;2.5;;2.5;1.7;;;;;;
79466;SPS30;68933;49.726;9.226;2023-07-31T01:02:30;2.5;;2.5;1.7;;;;;;
79466;SPS30;68933;49.726;9.226;2023-07-31T01:04:43;2.5;;2.5;1.7;;;;;;
79466;SPS30;68933;49.726;9.226;2023-07-31T01:06:58;2.5;;2.5;1.7;;;;;;
79466;SPS30;68933;49.726;9.226;2023-07-31T01:09:11;2.5;;2.5;1.7;;;;;;
79466;SPS30;68933;49.726;9.226;2023-07-31T01:11:24;2.5;;2.5;1.7;;;;;;
79466;SPS30;68933;49.726;9.226;2023-07-31T01:13:35;2.5;;2.5;1.7;;;;;;
79466;SPS30;68933;49.726;9.226;2023-07-31T01:15:48;2.5;;2.5;1.7;;;;;;
79466;SPS30;68933;49.726;9.226;2023-07-31T01:18:01;2.5;;2.5;1.7;;;;;;
79466;SPS30;68933;49.726;9.226;2023-07-31T01:20:15;2.5;;2.5;1.7;;;;;;
79466;SPS30;68933;49.726;9.226;2023-07-31T01:22:30;2.5;;2.5;1.7;;;;;;
79466;SPS30;68933;49.726;9.226;2023-07-31T01:24:41;2.5;;2.5;1.7;;;;;;
79466;SPS30;68933;49.726;9.226;2023-07-31T01:26:55;2.5;;2.5;1.7;;;;;;
79466;SPS30;68933;49.726;9.226;2023-07-31T01:29:07;2.5;;2.5;1.7;;;;;;
79466;SPS30;68933;49.726;9.226;2023-07-31T01:31:20;2.5;;2.5;1.7;;;;;;
79466;SPS30;68933;49.726;9.226;2023-07-31T01:33:32;2.5;;2.5;1.7;;;;;;
79466;SPS30;68933;49.726;9.226;2023-07-31T01:35:45;2.5;;2.5;1.7;;;;;;
79466;SPS30;68933;49.726;9.226;2023-07-31T01:37:58;2.5;;2.5;1.7;;;;;;
79466;SPS30;68933;49.726;9.226;2023-07-31T01:40:11;2.5;;2.5;1.7;;;;;;
79466;SPS30;68933;49.726;9.226;2023-07-31T01:42:24;2.5;;2.5;1.7;;;;;;
79466;SPS30;68933;49.726;9.226;2023-07-31T01:44:37;2.5;;2.5;1.7;;;;;;
79466;SPS30;68933;49.726;9.226;2023-07-31T01:46:50;2.5;;2.5;1.7;;;;;;
79466;SPS30;68933;49.726;9.226;2023-07-31T01:49:03;2.5;;2.5;1.7;;;;;;
79466;SPS30;68933;49.726;9.226;2023-07-31T01:51:16;2.3;;2.2;1.7;;;;;;
79466;SPS30;68933;49.726;9.226;2023-07-31T01:53:32;2.3;;2.2;1.7;;;;;;
79466;SPS30;68933;49.726;9.226;2023-07-31T01:55:42;2.3;;2.2;1.7;;;;;;
79466;SPS30;68933;49.726;9.226;2023-07-31T01:57:55;2.3;;2.2;1.7;;;;;;
79466;SPS30;68933;49.726;9.226;2023-07-31T02:00:09;2.3;;2.2;1.7;;;;;;
79466;SPS30;68933;49.726;9.226;2023-07-31T02:02:22;2.3;;2.2;1.7;;;;;;
79466;SPS30;68933;49.726;9.226;2023-07-31T02:04:34;2.3;;2.2;1.7;;;;;;
79466;SPS30;68933;49.726;9.226;2023-07-31T02:06:47;2.3;;2.2;1.7;;;;;;
79466;SPS30;68933;49.726;9.226;2023-07-31T02:09:00;2.3;;2.2;1.7;;;;;;
79466;SPS30;68933;49.726;9.226;2023-07-31T02:11:13;2.3;;2.2;1.7;;;;;;
79466;SPS30;68933;49.726;9.226;2023-07-31T02:13:26;2.3;;2.2;1.7;;;;;;
79466;SPS30;68933;49.726;9.226;2023-07-31T02:15:39;2.3;;2.2;1.7;;;;;;
79466;SPS30;68933;49.726;9.226;2023-07-31T02:17:52;2.3;;2.2;1.7;;;;;;
79466;SPS30;68933;49.726;9.226;2023-07-31T02:20:05;2.3;;2.2;1.7;;;;;;
79466;SPS30;68933;49.726;9.226;2023-07-31T02:22:18;2.3;;2.2;1.7;;;;;;
79466;SPS30;68933;49.726;9.226;2023-07-31T02:24:31;2.3;;2.2;1.7;;;;;;
79466;SPS30;68933;49.726;9.226;2023-07-31T02:26:44;2.3;;2.2;1.7;;;;;;
79466;SPS30;68933;49.726;9.226;2023-07-31T02:28:57;2.3;;2.2;1.7;;;;;;
79466;SPS30;68933;49.726;9.226;2023-07-31T02:31:10;2.3;;2.2;1.7;;;;;;
79466;SPS30;68933;49.726;9.226;2023-07-31T02:33:23;2.3;;2.2;1.7;;;;;;
79466;SPS30;68933;49.726;9.226;2023-07-31T02:35:36;2.3;;2.2;1.7;;;;;;
79466;SPS30;68933;49.726;9.226;2023-07-31T02:37:49;2.3;;2.2;1.7;;;;;;
79466;SPS30;68933;49.726;9.226;2023-07-31T02:40:02;2.3;;2.2;1.7;;;;;;
79466;SPS30;68933;49.726;9.226;2023-07-31T02:42:15;2.3;;2.2;1.7;;;;;;
79466;SPS30;68933;49.726;9.226;2023-07-31T02:44:28;2.3;;2.2;1.7;;;;;;
79466;SPS30;68933;49.726;9.226;2023-07-31T02:46:41;2.3;;2.2;1.7;;;;;;
79466;SPS30;68933;49.726;9.226;2023-07-31T02:48:54;2.3;;2.2;1.7;;;;;;
79466;SPS30;68933;49.726;9.226;2023-07-31T02:51:07;2.3;;2.2;2.4;;;;;;
79466;SPS30;68933;49.726;9.226;2023-07-31T02:53:20;2.3;;2.2;2.4;;;;;;
79466;SPS30;68933;49.726;9.226;2023-07-31T02:55:33;2.3;;2.2;2.4;;;;;;
79466;SPS30;68933;49.726;9.226;2023-07-31T02:57:46;2.3;;2.2;2.4;;;;;;
79466;SPS30;68933;49.726;9.226;2023-07-31T02:59:59;2.3;;2.2;2.4;;;;;;
79466;SPS30;68933;49.726;9.226;2023-07-31T03:02:12;2.3;;2.2;2.4;;;;;;
79466;SPS30;68933;49.726;9.226;2023-07-31T03:04:25;2.3;;2.2;2.4;;;;;;
79466;SPS30;68933;49.726;9.226;2023-07-31T03:06:38;2.3;;2.2;2.4;;;;;;
79466;SPS30;68933;49.726;9.226;2023-07-31T03:08:51;2.3;;2.2;2.4;;;;;;
79466;SPS30;68933;49.726;9.226;2023-07-31T03:11:04;2.3;;2.2;2.4;;;;;;
79466;SPS30;68933;49.726;9.226;2023-07-31T03:13:17;2.3;;2.2;2.4;;;;;;
79466;SPS30;68933;49.726;9.226;2023-07-31T03:15:30;2.3;;2.2;2.4;;;;;;
79466;SPS30;68933;49.726;9.226;2023-07-31T03:17:43;2.3;;2.2;2.4;;;;;;
79466;SPS30;68933;49.726;9.226;2023-07-31T03:19:56;2.3;;2.2;2.4;;;;;;
79466;SPS30;68933;49.726;9.226;2023-07-31T03:22:09;2.3;;2.2;2.4;;;;;;
79466;SPS30;68933;49.726;9.226;2023-07-31T03:24:22;2.3;;2.2;2.4;;;;;;
79466;SPS30;68933;49.726;9.226;2023-07-31T03:26:35;2.3;;2.2;2.4;;;;;;
79466;SPS30;68933;49.726;9.226;2023-07-31T03:28:48;2.3;;2.2;2.4;;;;;;
79466;SPS30;68933;49.726;9.226;2023-07-31T03:31:01;2.3;;2.2;2.4;;;;;;
79466;SPS30;68933;49.726;9.226;2023-07-31T03:33:14;2.5;;2.3;2.2;;;;;;
79466;SPS30;68933;49.726;9.226;2023-07-31T03:35:27;2.5;;2.3;2.2;;;;;;
79466;SPS30;68933;49.726;9.226;2023-07-31T03:37:40;2.5;;2.3;2.2;;;;;;
79466;SPS30;68933;49.726;9.226;2023-07-31T03:39:53;2.5;;2.3;2.2;;;;;;
79466;SPS30;68933;49.726;9.226;2023-07-31T03:42:06;2.5;;2.3;2.2;;;;;;
79466;SPS30;68933;49.726;9.226;2023-07-31T03:44:19;2.5;;2.3;2.2;;;;;;
79466;SPS30;68933;49.726;9.226;2023-07-31T03:46:32;2.5;;2.3;2.2;;;;;;
79466;SPS30;68933;49.726;9.226;2023-07-31T03:48:45;2.6;;2.5;2.3;;;;;;
79466;SPS30;68933;49.726;9.226;2023-07-31T03:50:58;2.6;;2.5;2.3;;;;;;
79466;SPS30;68933;49.726;9.226;2023-07-31T03:53:11;3;;2.9;2.6;;;;;;
79466;SPS30;68933;49.726;9.226;2023-07-31T03:55:24;3;;2.9;2.6;;;;;;
79466;SPS30;68933;49.726;9.226;2023-07-31T03:57:37;3;;2.9;2.6;;;;;;
79466;SPS30;68933;49.726;9.226;2023-07-31T03:59:50;2.8;;2.7;2.6;;;;;;
79466;SPS30;68933;49.726;9.226;2023-07-31T04:02:03;2.8;;2.7;2.6;;;;;;
79466;SPS30;68933;49.726;9.226;2023-07-31T04:04:16;3.3;;3.2;2.9;;;;;;
79466;SPS30;68933;49.726;9.226;2023-07-31T04:06:29;3.3;;3.2;2.9;;;;;;
79466;SPS30;68933;49.726;9.226;2023-07-31T04:08:42;2.7;;2.7;2.6;;;;;;
79466;SPS30;68933;49.726;9.226;2023-07-31T04:10:55;2.7;;2.7;2.6;;;;;;
79466;SPS30;68933;49.726;9.226;2023-07-31T04:13:08;2.7;;2.7;2.6;;;;;;
79466;SPS30;68933;49.726;9.226;2023-07-31T04:15:21;2.6;;2.6;2.4;;;;;;
79466;SPS30;68933;49.726;9.226;2023-07-31T04:17:34;2.6;;2.6;2.4;;;;;;
79466;SPS30;68933;49.726;9.226;2023-07-31T04:19:47;2.7;;2.6;2.5;;;;;;
79466;SPS30;68933;49.726;9.226;2023-07-31T04:22:00;2.7;;2.6;2.5;;;;;;
79466;SPS30;68933;49.726;9.226;2023-07-31T04:24:13;2.7;;2.6;2.5;;;;;;
79466;SPS30;68933;49.726;9.226;2023-07-31T04:26:26;2.8;;2.7;2.6;;;;;;
79466;SPS30;68933;49.726;9.226;2023-07-31T04:28:39;2.8;;2.7;2.6;;;;;;
79466;SPS30;68933;49.726;9.226;2023-07-31T04:30:52;2.8;;2.8;2.6;;;;;;
79466;SPS30;68933;49.726;9.226;2023-07-31T04:33:05;2.8;;2.8;2.6;;;;;;
79466;SPS30;68933;49.726;9.226;2023-07-31T04:35:18;2.7;;2.6;2.4;;;;;;
79466;SPS30;68933;49.726;9.226;2023-07-31T04:37:31;2.7;;2.6;2.4;;;;;;
79466;SPS30;68933;49.726;9.226;2023-07-31T04:39:44;2.8;;2.7;2.6;;;;;;
79466;SPS30;68933;49.726;9.226;2023-07-31T04:41:57;2.8;;2.7;2.6;;;;;;
79466;SPS30;68933;49.726;9.226;2023-07-31T04:44:10;2.8;;2.7;2.6;;;;;;
79466;SPS30;68933;49.726;9.226;2023-07-31T04:46:23;2.8;;2.7;2.6;;;;;;
79466;SPS30;68933;49.726;9.226;2023-07-31T04:48:36;2.8;;2.7;2.6;;;;;;
79466;SPS30;68933;49.726;9.226;2023-07-31T04:50:49;2.7;;2.7;2.6;;;;;;
79466;SPS30;68933;49.726;9.226;2023-07-31T04:53:02;2.7;;2.7;2.6;;;;;;
79466;SPS30;68933;49.726;9.226;2023-07-31T04:55:15;2.8;;2.7;2.6;;;;;;
79466;SPS30;68933;49.726;9.226;2023-07-31T04:57:28;2.8;;2.7;2.6;;;;;;
79466;SPS30;68933;49.726;9.226;2023-07-31T04:59:41;2.7;;2.7;2.5;;;;;;
79466;SPS30;68933;49.726;9.226;2023-07-31T05:01:54;2.7;;2.7;2.5;;;;;;
79466;SPS30;68933;49.726;9.226;2023-07-31T05:04:07;2.7;;2.7;2.5;;;;;;
79466;SPS30;68933;49.726;9.226;2023-07-31T05:06:20;2.3;;2.3;2.1;;;;;;
79466;SPS30;68933;49.726;9.226;2023-07-31T05:08:33;2.3;;2.3;2.1;;;;;;
79466;SPS30;68933;49.726;9.226;2023-07-31T05:10:46;2.3;;2.2;2.1;;;;;;
79466;SPS30;68933;49.726;9.226;2023-07-31T05:12:59;2.3;;2.2;2.1;;;;;;
79466;SPS30;68933;49.726;9.226;2023-07-31T05:15:12;3;;2.9;2.7;;;;;;
79466;SPS30;68933;49.726;9.226;2023-07-31T05:17:25;3;;2.9;2.7;;;;;;
79466;SPS30;68933;49.726;9.226;2023-07-31T05:19:38;3;;2.9;2.7;;;;;;
79466;SPS30;68933;49.726;9.226;2023-07-31T05:21:51;2.9;;2.8;2.6;;;;;;
79466;SPS30;68933;49.726;9.226;2023-07-31T05:24:04;2.9;;2.8;2.6;;;;;;
79466;SPS30;68933;49.726;9.226;2023-07-31T05:26:17;3.1;;3;2.8;;;;;;
79466;SPS30;68933;49.726;9.226;2023-07-31T05:28:30;3.1;;3;2.8;;;;;;
79466;SPS30;68933;49.726;9.226;2023-07-31T05:30:43;2.6;;2.5;2.4;;;;;;
79466;SPS30;68933;49.726;9.226;2023-07-31T05:32:56;2.6;;2.5;2.4;;;;;;
79466;SPS30;68933;49.726;9.226;2023-07-31T05:35:09;2.6;;2.5;2.3;;;;;;
79466;SPS30;68933;49.726;9.226;2023-07-31T05:37:23;2.6;;2.5;2.3;;;;;;
79466;SPS30;68933;49.726;9.226;2023-07-31T05:39:35;2.8;;2.8;2.7;;;;;;
79466;SPS30;68933;49.726;9.226;2023-07-31T05:41:48;2.8;;2.8;2.7;;;;;;
79466;SPS30;68933;49.726;9.226;2023-07-31T05:44:01;2;;2;1.9;;;;;;
79466;SPS30;68933;49.726;9.226;2023-07-31T05:46:14;2;;2;1.9;;;;;;
79466;SPS30;68933;49.726;9.226;2023-07-31T05:48:27;2;;2;1.9;;;;;;
79466;SPS30;68933;49.726;9.226;2023-07-31T05:50:40;2.6;;2.5;2.3;;;;;;
79466;SPS30;68933;49.726;9.226;2023-07-31T05:52:53;2.6;;2.5;2.3;;;;;;
79466;SPS30;68933;49.726;9.226;2023-07-31T05:55:06;2.5;;2.4;2.2;;;;;;
79466;SPS30;68933;49.726;9.226;2023-07-31T05:57:19;2.5;;2.4;2.2;;;;;;
79466;SPS30;68933;49.726;9.226;2023-07-31T05:59:32;3.1;;3;2.8;;;;;;
79466;SPS30;68933;49.726;9.226;2023-07-31T06:01:45;3.1;;3;2.8;;;;;;
79466;SPS30;68933;49.726;9.226;2023-07-31T06:03:58;2.8;;2.8;2.6;;;;;;
79466;SPS30;68933;49.726;9.226;2023-07-31T06:06:11;2.8;;2.8;2.6;;;;;;
79466;SPS30;68933;49.726;9.226;2023-07-31T06:08:24;2.8;;2.8;2.6;;;;;;
79466;SPS30;68933;49.726;9.226;2023-07-31T06:10:37;2.5;;2.4;2.3;;;;;;
79466;SPS30;68933;49.726;9.226;2023-07-31T06:12:50;2.5;;2.4;2.3;;;;;;
79466;SPS30;68933;49.726;9.226;2023-07-31T06:15:03;2.2;;2.2;2.1;;;;;;
79466;SPS30;68933;49.726;9.226;2023-07-31T06:17:16;2.2;;2.2;2.1;;;;;;
79466;SPS30;68933;49.726;9.226;2023-07-31T06:19:29;2.1;;2;1.9;;;;;;
79466;SPS30;68933;49.726;9.226;2023-07-31T06:21:42;2.1;;2;1.9;;;;;;
79466;SPS30;68933;49.726;9.226;2023-07-31T06:23:55;2.1;;2;1.9;;;;;;
79466;SPS30;68933;49.726;9.226;2023-07-31T06:26:08;3;;2.9;2.8;;;;;;
79466;SPS30;68933;49.726;9.226;2023-07-31T06:28:21;3;;2.9;2.8;;;;;;
79466;SPS30;68933;49.726;9.226;2023-07-31T06:30:34;2.6;;2.6;2.4;;;;;;
79466;SPS30;68933;49.726;9.226;2023-07-31T06:32:47;2.6;;2.6;2.4;;;;;;
79466;SPS30;68933;49.726;9.226;2023-07-31T06:35:00;2.6;;2.6;2.4;;;;;;
79466;SPS30;68933;49.726;9.226;2023-07-31T06:37:13;3;;2.9;2.7;;;;;;
79466;SPS30;68933;49.726;9.226;2023-07-31T06:39:26;3;;2.9;2.7;;;;;;
79466;SPS30;68933;49.726;9.226;2023-07-31T06:41:39;3.2;;3;2.8;;;;;;
79466;SPS30;68933;49.726;9.226;2023-07-31T06:43:52;3.2;;3;2.8;;;;;;
79466;SPS30;68933;49.726;9.226;2023-07-31T06:46:05;3.2;;3;2.8;;;;;;
79466;SPS30;68933;49.726;9.226;2023-07-31T06:48:18;2.4;;2.3;2.2;;;;;;
79466;SPS30;68933;49.726;9.226;2023-07-31T06:50:31;2.4;;2.3;2.2;;;;;;
79466;SPS30;68933;49.726;9.226;2023-07-31T06:52:44;2.5;;2.5;2.3;;;;;;
79466;SPS30;68933;49.726;9.226;2023-07-31T06:55:00;2.5;;2.5;2.3;;;;;;
79466;SPS30;68933;49.726;9.226;2023-07-31T06:57:10;2.7;;2.7;2.5;;;;;;
79466;SPS30;68933;49.726;9.226;2023-07-31T06:59:23;2.7;;2.7;2.5;;;;;;
79466;SPS30;68933;49.726;9.226;2023-07-31T07:01:36;2.7;;2.7;2.5;;;;;;
79466;SPS30;68933;49.726;9.226;2023-07-31T07:03:49;2.8;;2.7;2.5;;;;;;
79466;SPS30;68933;49.726;9.226;2023-07-31T07:06:02;2.8;;2.7;2.5;;;;;;
79466;SPS30;68933;49.726;9.226;2023-07-31T07:08:15;2.9;;2.8;2.6;;;;;;
79466;SPS30;68933;49.726;9.226;2023-07-31T07:10:28;2.9;;2.8;2.6;;;;;;
79466;SPS30;68933;49.726;9.226;2023-07-31T07:12:41;2.4;;2.4;2.3;;;;;;
79466;SPS30;68933;49.726;9.226;2023-07-31T07:14:54;2.4;;2.4;2.3;;;;;;
79466;SPS30;68933;49.726;9.226;2023-07-31T07:17:07;2.4;;2.4;2.3;;;;;;
79466;SPS30;68933;49.726;9.226;2023-07-31T07:19:20;2.8;;2.7;2.5;;;;;;
79466;SPS30;68933;49.726;9.226;2023-07-31T07:21:33;2.8;;2.7;2.5;;;;;;
79466;SPS30;68933;49.726;9.226;2023-07-31T07:23:46;2.9;;2.9;2.7;;;;;;
79466;SPS30;68933;49.726;9.226;2023-07-31T07:25:59;2.9;;2.9;2.7;;;;;;
79466;SPS30;68933;49.726;9.226;2023-07-31T07:28:12;2.6;;2.5;2.4;;;;;;
79466;SPS30;68933;49.726;9.226;2023-07-31T07:30:25;2.6;;2.5;2.4;;;;;;
79466;SPS30;68933;49.726;9.226;2023-07-31T07:32:38;2.6;;2.5;2.4;;;;;;
79466;SPS30;68933;49.726;9.226;2023-07-31T07:34:51;2.8;;2.7;2.6;;;;;;
79466;SPS30;68933;49.726;9.226;2023-07-31T07:37:04;2.8;;2.7;2.6;;;;;;
79466;SPS30;68933;49.726;9.226;2023-07-31T07:39:17;2.8;;2.7;2.6;;;;;;
79466;SPS30;68933;49.726;9.226;2023-07-31T07:41:30;2.8;;2.7;2.6;;;;;;
79466;SPS30;68933;49.726;9.226;2023-07-31T07:43:43;2.8;;2.7;2.6;;;;;;
79466;SPS30;68933;49.726;9.226;2023-07-31T07:45:56;2.8;;2.7;2.6;;;;;;
79466;SPS30;68933;49.726;9.226;2023-07-31T07:48:09;2.8;;2.7;2.6;;;;;;
79466;SPS30;68933;49.726;9.226;2023-07-31T07:50:22;2.5;;2.5;2.4;;;;;;
79466;SPS30;68933;49.726;9.226;2023-07-31T07:52:35;2.5;;2.5;2.4;;;;;;
79466;SPS30;68933;49.726;9.226;2023-07-31T07:54:48;1.8;;1.8;1.7;;;;;;
79466;SPS30;68933;49.726;9.226;2023-07-31T07:57:01;1.8;;1.8;1.7;;;;;;
79466;SPS30;68933;49.726;9.226;2023-07-31T07:59:14;2.6;;2.5;2.3;;;;;;
79466;SPS30;68933;49.726;9.226;2023-07-31T08:01:27;2.6;;2.5;2.3;;;;;;
79466;SPS30;68933;49.726;9.226;2023-07-31T08:03:40;2.6;;2.5;2.3;;;;;;
79466;SPS30;68933;49.726;9.226;2023-07-31T08:05:57;2.6;;2.5;2.3;;;;;;
79466;SPS30;68933;49.726;9.226;2023-07-31T08:08:06;2.9;;2.8;2.6;;;;;;
79466;SPS30;68933;49.726;9.226;2023-07-31T08:10:19;2.9;;2.8;2.6;;;;;;
79466;SPS30;68933;49.726;9.226;2023-07-31T08:12:32;2.6;;2.5;2.4;;;;;;
79466;SPS30;68933;49.726;9.226;2023-07-31T08:14:45;2.6;;2.5;2.4;;;;;;
79466;SPS30;68933;49.726;9.226;2023-07-31T08:16:58;2.6;;2.5;2.4;;;;;;
79466;SPS30;68933;49.726;9.226;2023-07-31T08:19:11;2.6;;2.5;2.4;;;;;;
79466;SPS30;68933;49.726;9.226;2023-07-31T08:21:24;2.6;;2.5;2.4;;;;;;
79466;SPS30;68933;49.726;9.226;2023-07-31T08:23:37;2.8;;2.7;2.5;;;;;;
79466;SPS30;68933;49.726;9.226;2023-07-31T08:25:50;2.8;;2.7;2.5;;;;;;
79466;SPS30;68933;49.726;9.226;2023-07-31T08:28:03;2.6;;2.5;2.4;;;;;;
79466;SPS30;68933;49.726;9.226;2023-07-31T08:30:16;2.6;;2.5;2.4;;;;;;
79466;SPS30;68933;49.726;9.226;2023-07-31T08:32:29;3.2;;3.1;2.9;;;;;;
79466;SPS30;68933;49.726;9.226;2023-07-31T08:34:42;3.2;;3.1;2.9;;;;;;
79466;SPS30;68933;49.726;9.226;2023-07-31T08:36:55;3.2;;3.1;2.9;;;;;;
79466;SPS30;68933;49.726;9.226;2023-07-31T08:39:08;1.9;;1.9;1.8;;;;;;
79466;SPS30;68933;49.726;9.226;2023-07-31T08:41:21;1.9;;1.9;1.8;;;;;;
79466;SPS30;68933;49.726;9.226;2023-07-31T08:43:35;2.3;;2.3;2.1;;;;;;
79466;SPS30;68933;49.726;9.226;2023-07-31T08:45:47;2.3;;2.3;2.1;;;;;;
79466;SPS30;68933;49.726;9.226;2023-07-31T08:48:00;2.5;;2.4;2.3;;;;;;
79466;SPS30;68933;49.726;9.226;2023-07-31T08:50:14;2.5;;2.4;2.3;;;;;;
79466;SPS30;68933;49.726;9.226;2023-07-31T08:52:26;2.5;;2.4;2.3;;;;;;
79466;SPS30;68933;49.726;9.226;2023-07-31T08:54:39;2.5;;2.4;2.3;;;;;;
79466;SPS30;68933;49.726;9.226;2023-07-31T08:56:52;2.5;;2.4;2.3;;;;;;
79466;SPS30;68933;49.726;9.226;2023-07-31T08:59:05;2.5;;2.4;2.3;;;;;;
79466;SPS30;68933;49.726;9.226;2023-07-31T09:01:18;2.5;;2.4;2.3;;;;;;
79466;SPS30;68933;49.726;9.226;2023-07-31T09:03:33;2.5;;2.4;2.3;;;;;;
79466;SPS30;68933;49.726;9.226;2023-07-31T09:05:44;2.5;;2.4;2.3;;;;;;
79466;SPS30;68933;49.726;9.226;2023-07-31T09:07:57;2.5;;2.5;2.4;;;;;;
79466;SPS30;68933;49.726;9.226;2023-07-31T09:10:10;2.5;;2.5;2.4;;;;;;
79466;SPS30;68933;49.726;9.226;2023-07-31T09:12:23;2.5;;2.5;2.4;;;;;;
79466;SPS30;68933;49.726;9.226;2023-07-31T09:14:36;2.1;;2.1;2;;;;;;
79466;SPS30;68933;49.726;9.226;2023-07-31T09:16:53;2.1;;2.1;2;;;;;;
79466;SPS30;68933;49.726;9.226;2023-07-31T09:19:02;2.6;;2.5;2.3;;;;;;
79466;SPS30;68933;49.726;9.226;2023-07-31T09:21:15;2.6;;2.5;2.3;;;;;;
79466;SPS30;68933;49.726;9.226;2023-07-31T09:23:39;2.6;;2.5;2.3;;;;;;
79466;SPS30;68933;49.726;9.226;2023-07-31T09:25:43;2.8;;2.8;2.6;;;;;;
79466;SPS30;68933;49.726;9.226;2023-07-31T09:28:02;2.8;;2.8;2.6;;;;;;
79466;SPS30;68933;49.726;9.226;2023-07-31T09:30:07;3;;3;2.8;;;;;;
79466;SPS30;68933;49.726;9.226;2023-07-31T09:32:20;3;;3;2.8;;;;;;
79466;SPS30;68933;49.726;9.226;2023-07-31T09:34:36;2.9;;2.9;2.7;;;;;;
79466;SPS30;68933;49.726;9.226;2023-07-31T09:36:46;2.9;;2.9;2.7;;;;;;
79466;SPS30;68933;49.726;9.226;2023-07-31T09:39:01;2.9;;2.9;2.7;;;;;;
79466;SPS30;68933;49.726;9.226;2023-07-31T09:41:12;3.2;;3.2;3;;;;;;
79466;SPS30;68933;49.726;9.226;2023-07-31T09:43:25;3.2;;3.2;3;;;;;;
79466;SPS30;68933;49.726;9.226;2023-07-31T09:45:39;2.6;;2.5;2.4;;;;;;
79466;SPS30;68933;49.726;9.226;2023-07-31T09:47:51;2.6;;2.5;2.4;;;;;;
79466;SPS30;68933;49.726;9.226;2023-07-31T09:50:06;2.5;;2.5;2.3;;;;;;
79466;SPS30;68933;49.726;9.226;2023-07-31T09:52:17;2.5;;2.5;2.3;;;;;;
79466;SPS30;68933;49.726;9.226;2023-07-31T09:54:30;2.5;;2.5;2.3;;;;;;
79466;SPS30;68933;49.726;9.226;2023-07-31T09:56:43;2.7;;2.6;2.4;;;;;;
79466;SPS30;68933;49.726;9.226;2023-07-31T09:58:56;2.7;;2.6;2.4;;;;;;
79466;SPS30;68933;49.726;9.226;2023-07-31T10:01:09;3;;2.9;2.8;;;;;;
79466;SPS30;68933;49.726;9.226;2023-07-31T10:03:22;3;;2.9;2.8;;;;;;
79466;SPS30;68933;49.726;9.226;2023-07-31T10:05:36;3;;2.9;2.8;;;;;;
79466;SPS30;68933;49.726;9.226;2023-07-31T10:07:50;3;;3;2.9;;;;;;
79466;SPS30;68933;49.726;9.226;2023-07-31T10:10:01;3;;3;2.9;;;;;;
79466;SPS30;68933;49.726;9.226;2023-07-31T10:12:14;2.8;;2.8;2.7;;;;;;
79466;SPS30;68933;49.726;9.226;2023-07-31T10:14:27;2.8;;2.8;2.7;;;;;;
79466;SPS30;68933;49.726;9.226;2023-07-31T10:16:40;3.1;;3.1;3;;;;;;
79466;SPS30;68933;49.726;9.226;2023-07-31T10:18:53;3.1;;3.1;3;;;;;;
79466;SPS30;68933;49.726;9.226;2023-07-31T10:21:06;3.1;;3.1;3;;;;;;
79466;SPS30;68933;49.726;9.226;2023-07-31T10:23:19;3.1;;3;2.9;;;;;;
79466;SPS30;68933;49.726;9.226;2023-07-31T10:25:32;3.1;;3;2.9;;;;;;
79466;SPS30;68933;49.726;9.226;2023-07-31T10:27:45;2.7;;2.7;2.5;;;;;;
79466;SPS30;68933;49.726;9.226;2023-07-31T10:29:58;2.7;;2.7;2.5;;;;;;
79466;SPS30;68933;49.726;9.226;2023-07-31T10:32:11;2.5;;2.4;2.3;;;;;;
79466;SPS30;68933;49.726;9.226;2023-07-31T10:34:24;2.5;;2.4;2.3;;;;;;
79466;SPS30;68933;49.726;9.226;2023-07-31T10:36:37;2.8;;2.8;2.6;;;;;;
79466;SPS30;68933;49.726;9.226;2023-07-31T10:38:50;2.8;;2.8;2.6;;;;;;
79466;SPS30;68933;49.726;9.226;2023-07-31T10:41:07;2.8;;2.8;2.6;;;;;;
79466;SPS30;68933;49.726;9.226;2023-07-31T10:43:23;3;;3;2.9;;;;;;
79466;SPS30;68933;49.726;9.226;2023-07-31T10:45:31;3;;3;2.9;;;;;;
79466;SPS30;68933;49.726;9.226;2023-07-31T10:47:42;3;;3;2.9;;;;;;
79466;SPS30;68933;49.726;9.226;2023-07-31T10:50:11;3;;3;2.9;;;;;;
79466;SPS30;68933;49.726;9.226;2023-07-31T10:52:10;2.9;;2.9;2.8;;;;;;
79466;SPS30;68933;49.726;9.226;2023-07-31T10:54:21;2.9;;2.9;2.8;;;;;;
79466;SPS30;68933;49.726;9.226;2023-07-31T10:56:36;2.9;;2.9;2.8;;;;;;
79466;SPS30;68933;49.726;9.226;2023-07-31T10:58:47;2.8;;2.8;2.7;;;;;;
79466;SPS30;68933;49.726;9.226;2023-07-31T11:01:01;2.8;;2.8;2.7;;;;;;
79466;SPS30;68933;49.726;9.226;2023-07-31T11:03:14;3.2;;3.2;3;;;;;;
79466;SPS30;68933;49.726;9.226;2023-07-31T11:05:42;3.2;;3.2;3;;;;;;
79466;SPS30;68933;49.726;9.226;2023-07-31T11:07:46;2.7;;2.7;2.5;;;;;;
79466;SPS30;68933;49.726;9.226;2023-07-31T11:09:52;2.7;;2.7;2.5;;;;;;
79466;SPS30;68933;49.726;9.226;2023-07-31T11:12:05;2.9;;2.9;2.8;;;;;;
79466;SPS30;68933;49.726;9.226;2023-07-31T11:14:18;2.9;;2.9;2.8;;;;;;
79466;SPS30;68933;49.726;9.226;2023-07-31T11:16:31;2.9;;2.9;2.8;;;;;;
79466;SPS30;68933;49.726;9.226;2023-07-31T11:18:44;2.7;;2.7;2.6;;;;;;
79466;SPS30;68933;49.726;9.226;2023-07-31T11:20:57;2.7;;2.7;2.6;;;;;;
79466;SPS30;68933;49.726;9.226;2023-07-31T11:23:10;3.2;;3.2;3.1;;;;;;
79466;SPS30;68933;49.726;9.226;2023-07-31T11:25:23;3.2;;3.2;3.1;;;;;;
79466;SPS30;68933;49.726;9.226;2023-07-31T11:27:38;3.2;;3.2;3.1;;;;;;
79466;SPS30;68933;49.726;9.226;2023-07-31T11:29:50;3.2;;3.2;3.1;;;;;;
79466;SPS30;68933;49.726;9.226;2023-07-31T11:32:02;3.2;;3.2;3.1;;;;;;
79466;SPS30;68933;49.726;9.226;2023-07-31T11:34:15;3.3;;3.3;3.1;;;;;;
79466;SPS30;68933;49.726;9.226;2023-07-31T11:36:28;3.3;;3.3;3.1;;;;;;
79466;SPS30;68933;49.726;9.226;2023-07-31T11:38:41;3.6;;3.6;3.4;;;;;;
79466;SPS30;68933;49.726;9.226;2023-07-31T11:40:55;3.6;;3.6;3.4;;;;;;
79466;SPS30;68933;49.726;9.226;2023-07-31T11:43:07;2.8;;2.8;2.6;;;;;;
79466;SPS30;68933;49.726;9.226;2023-07-31T11:45:20;2.8;;2.8;2.6;;;;;;
79466;SPS30;68933;49.726;9.226;2023-07-31T11:47:34;3.1;;3.1;3;;;;;;
79466;SPS30;68933;49.726;9.226;2023-07-31T11:49:46;3.1;;3.1;3;;;;;;
79466;SPS30;68933;49.726;9.226;2023-07-31T11:51:59;2.7;;2.7;2.6;;;;;;
79466;SPS30;68933;49.726;9.226;2023-07-31T11:54:12;2.7;;2.7;2.6;;;;;;
79466;SPS30;68933;49.726;9.226;2023-07-31T11:56:25;2.9;;2.8;2.7;;;;;;
79466;SPS30;68933;49.726;9.226;2023-07-31T11:58:38;2.9;;2.8;2.7;;;;;;
79466;SPS30;68933;49.726;9.226;2023-07-31T12:00:51;2.9;;2.8;2.7;;;;;;
79466;SPS30;68933;49.726;9.226;2023-07-31T12:03:04;3.5;;3.5;3.3;;;;;;
79466;SPS30;68933;49.726;9.226;2023-07-31T12:05:17;3.5;;3.5;3.3;;;;;;
79466;SPS30;68933;49.726;9.226;2023-07-31T12:07:42;3.3;;3.3;3.1;;;;;;
79466;SPS30;68933;49.726;9.226;2023-07-31T12:09:51;3.3;;3.3;3.1;;;;;;
79466;SPS30;68933;49.726;9.226;2023-07-31T12:11:56;3.1;;3.1;2.9;;;;;;
79466;SPS30;68933;49.726;9.226;2023-07-31T12:14:17;3.1;;3.1;2.9;;;;;;
79466;SPS30;68933;49.726;9.226;2023-07-31T12:16:25;3.5;;3.5;3.3;;;;;;
79466;SPS30;68933;49.726;9.226;2023-07-31T12:18:36;3.5;;3.5;3.3;;;;;;
79466;SPS30;68933;49.726;9.226;2023-07-31T12:20:49;3.5;;3.5;3.3;;;;;;
79466;SPS30;68933;49.726;9.226;2023-07-31T12:23:01;3.7;;3.7;3.6;;;;;;
79466;SPS30;68933;49.726;9.226;2023-07-31T12:25:15;3.7;;3.7;3.6;;;;;;
79466;SPS30;68933;49.726;9.226;2023-07-31T12:27:32;3.9;;3.9;3.7;;;;;;
79466;SPS30;68933;49.726;9.226;2023-07-31T12:29:41;3.9;;3.9;3.7;;;;;;
79466;SPS30;68933;49.726;9.226;2023-07-31T12:31:53;3.9;;3.9;3.7;;;;;;
79466;SPS30;68933;49.726;9.226;2023-07-31T12:34:14;3.4;;3.4;3.3;;;;;;
79466;SPS30;68933;49.726;9.226;2023-07-31T12:36:20;3.4;;3.4;3.3;;;;;;
79466;SPS30;68933;49.726;9.226;2023-07-31T12:38:32;3.5;;3.5;3.3;;;;;;